ポンペイ島 の空港の天気 - METARとTAF

ポンペイ国際空港 ( PTPN / PNI ) - ミクロネシア連邦 ポンペイ島
飛行場実況気象(Metar)
観測時間11/16 15:50 +11 (11/16 04:50 UTC)
風向・風速東北東 3m/s
視程10km以上
天気現象
少しの雲 雲底高度 550m
全天の4割程度の雲 雲底高度 3960m
全天の8割程度の雲 雲底高度 9140m
気温32℃
湿度63%
気圧1006hPa
METARPTPN 160450Z 07006KT 15SM FEW018 SCT130 BKN300 32/24 A2972
過去の天気等 Google飛行場航空写真 Wunderground天気予報

過去48時間のMETAR

飛行場予報(TAF)
発表時間: 11/16 16:38 +11 (11/16 05:38 UTC)
予報対象時間: 16日17時 +11 ~ 17日17時 +11
風向・風速東北東 3m/s
視程10km以上
天気現象周辺でしゅう雨
少しの雲 雲底高度 550m
全天の4割程度の雲 雲底高度 4270m
PTPN 160538Z 1606/1706 07006KT P6SM VCSH FEW018 SCT140